Pagrindinis puslapis
METAR-TAF:

METAR-TAF

Oro uostai :

Oro pajėgų bazė

Tulnas, Austrija

platuma: 48-19N, ilguma: 016-07E, Aukštis: 175 m

METAR: trūkstamas

Laikas: 21:55 (20:55 UTC)

Prognozė

Ataskaita buvo paskelbta 9 valandos ir 40 minutes, ne 11:15 UTC
Prognozė galioja nuo 20 metu 12 UTC su 20 metu 21 UTC
Vėjas 4 kt iš Pietvakarių
Matomumas: 7000 m
Mažai debesys ne aukštis 1000 ft
Su prošvaistėmis ne aukštis 1800 ft
Tapsmas
nuo 20 metu 16 UTC su 20 metu 18 UTC
Matomumas 10 km arba daugiau
Išsisklaidę debesys ne aukštis 3000 ft

TAF: LOXT 201115Z 2012/2021 23004KT 7000 FEW010 BKN018 BECMG 2016/2018 9999 SCT030

Orai ataskaitas ir orų prognozės (METAR, TAF).

turimą stotys yra geltonos ir raudonos taškus žemėlapyje.

Perkelti pele per norėdami pamatyti stoties vardą.

Tada spustelėkite, norėdami matyti oro stebėjimo ir prognozės.

Norėdami pakeisti žemėlapį: spustelėkite ant žalios mygtukų su juodo kryžiaus žemyn,; žalią mygtuką su brūkšneliu, jei norite nutolinti; arba žalių rodyklių gretimoms žemėlapius.


METAR-TAF: